createdAt,value
2023-05-06T00:00:00.903Z,99.90
2023-05-06T00:02:29.694Z,99.90
2023-05-06T00:04:56.790Z,99.90
2023-05-06T00:07:23.741Z,99.90
2023-05-06T00:09:50.676Z,99.90
2023-05-06T00:12:17.461Z,99.90
2023-05-06T00:14:44.207Z,99.90
2023-05-06T00:17:11.109Z,99.90
2023-05-06T00:19:38.759Z,99.90
2023-05-06T00:22:05.785Z,99.90
2023-05-06T00:24:32.576Z,99.90
2023-05-06T00:26:59.396Z,99.90
2023-05-06T00:29:26.241Z,99.90
2023-05-06T00:31:52.998Z,99.90
2023-05-06T00:34:19.840Z,99.90
2023-05-06T00:36:46.712Z,99.90
2023-05-06T00:39:13.618Z,99.90
2023-05-06T00:41:40.403Z,99.90
2023-05-06T00:44:07.272Z,99.90
2023-05-06T00:46:34.143Z,99.90
2023-05-06T00:49:01.067Z,99.90
2023-05-06T00:51:28.134Z,99.90
2023-05-06T00:53:55.133Z,99.90
2023-05-06T00:56:22.377Z,99.90
2023-05-06T00:58:49.236Z,99.90
2023-05-06T01:01:17.564Z,99.90
2023-05-06T01:03:44.728Z,99.90
2023-05-06T01:06:24.033Z,99.90
2023-05-06T01:08:57.630Z,99.90
2023-05-06T01:11:44.227Z,99.90
2023-05-06T01:14:21.662Z,99.90
2023-05-06T01:16:54.289Z,99.90
2023-05-06T01:19:42.077Z,99.90
2023-05-06T01:22:10.776Z,99.90
2023-05-06T01:24:43.232Z,99.90
2023-05-06T01:27:11.963Z,99.90
2023-05-06T01:29:42.030Z,99.90
2023-05-06T01:32:32.157Z,99.90
2023-05-06T01:35:15.571Z,99.90
2023-05-06T01:38:03.546Z,99.90
2023-05-06T01:40:33.163Z,99.90
2023-05-06T01:43:02.363Z,99.90
2023-05-06T01:45:31.989Z,99.90
2023-05-06T01:47:59.409Z,99.90
2023-05-06T01:50:29.131Z,99.90
2023-05-06T01:53:00.094Z,99.90
2023-05-06T01:55:27.190Z,99.90
2023-05-06T01:57:57.113Z,99.90
2023-05-06T02:03:27.321Z,99.90
2023-05-06T02:05:54.624Z,99.90
2023-05-06T02:08:22.205Z,99.90
2023-05-06T02:10:50.441Z,99.90
2023-05-06T02:13:19.631Z,99.90
2023-05-06T02:15:46.777Z,99.90
2023-05-06T02:18:17.549Z,99.90
2023-05-06T02:20:44.592Z,99.90
2023-05-06T02:23:16.300Z,99.90
2023-05-06T02:25:43.472Z,99.90
2023-05-06T02:28:10.475Z,99.90
2023-05-06T02:30:37.676Z,99.90
2023-05-06T02:33:04.900Z,99.90
2023-05-06T02:35:32.412Z,99.90
2023-05-06T02:37:59.692Z,99.90
2023-05-06T02:40:27.654Z,99.90
2023-05-06T02:42:54.753Z,99.90
2023-05-06T02:45:22.069Z,99.90
2023-05-06T02:47:49.361Z,99.90
2023-05-06T02:50:17.295Z,99.90
2023-05-06T02:52:44.834Z,99.90
2023-05-06T02:55:12.170Z,99.90
2023-05-06T02:57:39.344Z,99.90
2023-05-06T03:00:07.207Z,99.90
2023-05-06T03:02:34.283Z,99.90
2023-05-06T03:05:01.326Z,99.90
2023-05-06T03:07:28.498Z,99.90
2023-05-06T03:09:55.943Z,99.90
2023-05-06T03:12:23.425Z,99.90
2023-05-06T03:14:50.523Z,99.90
2023-05-06T03:17:17.723Z,99.90
2023-05-06T03:19:44.923Z,99.90
2023-05-06T03:22:13.213Z,99.90
2023-05-06T03:24:43.149Z,99.90
2023-05-06T03:27:10.591Z,99.90
2023-05-06T03:29:38.064Z,99.90
2023-05-06T03:32:06.752Z,99.90
2023-05-06T03:34:40.040Z,99.90
2023-05-06T03:37:10.145Z,99.90
2023-05-06T03:39:38.219Z,99.90
2023-05-06T03:42:07.157Z,99.90
2023-05-06T03:44:36.727Z,99.90
2023-05-06T03:47:03.991Z,99.90
2023-05-06T03:49:33.517Z,99.90
2023-05-06T03:52:00.617Z,99.90
2023-05-06T03:54:27.676Z,99.90
2023-05-06T03:56:54.727Z,99.90
2023-05-06T03:59:21.719Z,99.90
2023-05-06T04:01:49.578Z,99.90
2023-05-06T04:04:17.677Z,99.90
2023-05-06T04:06:44.889Z,99.90
2023-05-06T04:09:14.515Z,99.90
2023-05-06T04:11:41.994Z,99.90
2023-05-06T04:14:11.789Z,99.90
2023-05-06T04:16:41.764Z,99.90
2023-05-06T04:19:09.375Z,99.90
2023-05-06T04:21:36.757Z,99.90
2023-05-06T04:24:08.257Z,99.90
2023-05-06T04:26:38.813Z,99.90
2023-05-06T04:29:05.897Z,99.90
2023-05-06T04:31:37.341Z,99.90
2023-05-06T04:34:07.974Z,99.90
2023-05-06T04:36:40.074Z,99.90
2023-05-06T04:39:26.189Z,99.90
2023-05-06T04:41:53.364Z,99.90
2023-05-06T04:44:29.105Z,99.90
2023-05-06T04:49:38.773Z,99.90
2023-05-06T04:52:06.801Z,99.90
2023-05-06T04:54:34.127Z,99.90
2023-05-06T04:57:01.152Z,99.90
2023-05-06T04:59:29.215Z,99.90
2023-05-06T05:01:56.443Z,99.90
2023-05-06T05:04:23.329Z,99.90
2023-05-06T05:06:50.295Z,99.90
2023-05-06T05:09:17.195Z,99.90
2023-05-06T05:11:46.528Z,99.90
2023-05-06T05:14:13.601Z,99.90
2023-05-06T05:16:40.671Z,99.90
2023-05-06T05:19:09.416Z,99.90
2023-05-06T05:21:37.038Z,99.90
2023-05-06T05:24:04.775Z,99.90
2023-05-06T05:26:31.743Z,99.90
2023-05-06T05:29:00.040Z,99.90
2023-05-06T05:31:28.016Z,99.90
2023-05-06T05:33:55.394Z,99.90
2023-05-06T05:36:23.521Z,99.90
2023-05-06T05:38:53.570Z,99.90
2023-05-06T05:41:22.082Z,99.90
2023-05-06T05:43:49.233Z,99.90
2023-05-06T05:46:17.021Z,99.90
2023-05-06T05:48:46.247Z,99.90
2023-05-06T05:51:14.118Z,99.90
2023-05-06T05:53:41.817Z,99.90
2023-05-06T05:56:09.863Z,99.90
2023-05-06T05:58:37.361Z,99.90
2023-05-06T06:01:04.297Z,99.90
2023-05-06T06:03:31.967Z,99.90
2023-05-06T06:05:59.411Z,99.90
2023-05-06T06:08:26.813Z,99.90
2023-05-06T06:10:55.362Z,99.90
2023-05-06T06:13:28.746Z,99.90
2023-05-06T06:15:59.587Z,99.90
2023-05-06T06:18:27.019Z,99.90
2023-05-06T06:20:54.268Z,99.90
2023-05-06T06:23:21.742Z,99.90
2023-05-06T06:25:52.087Z,99.90
2023-05-06T06:28:19.967Z,99.90
2023-05-06T06:30:47.490Z,99.90
2023-05-06T06:33:20.133Z,99.90
2023-05-06T06:35:55.548Z,99.90
2023-05-06T06:38:33.175Z,99.90
2023-05-06T06:41:00.703Z,99.90
2023-05-06T06:43:51.640Z,99.90
2023-05-06T07:13:29.166Z,99.90
2023-05-06T07:15:56.360Z,99.90
2023-05-06T07:18:23.423Z,99.90
2023-05-06T07:20:50.587Z,99.90
2023-05-06T07:23:21.049Z,99.90
2023-05-06T07:25:48.315Z,99.90
2023-05-06T07:28:15.800Z,99.90
2023-05-06T07:30:42.791Z,99.90
2023-05-06T07:33:09.691Z,99.90
2023-05-06T07:35:37.045Z,99.90
2023-05-06T07:38:04.402Z,99.90
2023-05-06T07:40:35.056Z,99.90
2023-05-06T07:43:04.864Z,99.90
2023-05-06T07:55:32.028Z,99.90
2023-05-06T07:58:17.316Z,99.90
2023-05-06T08:00:44.951Z,99.90
2023-05-06T08:03:30.512Z,99.90
2023-05-06T08:06:05.343Z,99.90
2023-05-06T08:08:36.841Z,99.90
2023-05-06T08:11:04.186Z,99.90
2023-05-06T08:13:34.436Z,99.90
2023-05-06T08:16:25.708Z,99.90
2023-05-06T08:18:52.835Z,99.90
2023-05-06T08:21:28.466Z,99.90
2023-05-06T08:23:55.523Z,99.90
2023-05-06T08:26:22.369Z,99.90
2023-05-06T08:28:49.186Z,99.90
2023-05-06T08:31:16.080Z,99.90
2023-05-06T08:33:43.021Z,99.90
2023-05-06T08:36:09.844Z,99.90
2023-05-06T08:38:36.871Z,99.90
2023-05-06T08:41:09.402Z,99.90
2023-05-06T08:43:44.035Z,99.90
2023-05-06T08:46:13.483Z,99.90
2023-05-06T08:48:42.642Z,99.90
2023-05-06T08:51:11.532Z,99.90
2023-05-06T08:53:42.346Z,99.90
2023-05-06T08:56:17.879Z,99.90
2023-05-06T08:58:48.713Z,99.90
2023-05-06T09:01:16.228Z,99.90
2023-05-06T09:04:21.844Z,99.90
2023-05-06T09:07:47.352Z,99.90
2023-05-06T09:10:20.645Z,99.90
2023-05-06T09:12:47.674Z,99.90
2023-05-06T09:15:17.104Z,99.90
2023-05-06T09:17:51.393Z,99.90
2023-05-06T09:20:34.306Z,99.90
2023-05-06T10:03:42.418Z,99.60
2023-05-06T13:44:45.321Z,92.80
2023-05-06T13:47:12.512Z,93.50
2023-05-06T13:49:43.060Z,93.70
2023-05-06T13:52:32.483Z,92.90
2023-05-06T14:25:29.699Z,91.40
2023-05-06T14:28:14.718Z,91.80
2023-05-06T14:30:42.388Z,92.00
2023-05-06T14:33:10.020Z,92.20
2023-05-06T14:35:41.459Z,93.10
2023-05-06T14:38:08.809Z,93.40
2023-05-06T14:40:37.051Z,93.50
2023-05-06T14:43:07.848Z,93.30
2023-05-06T14:45:35.131Z,92.80
2023-05-06T14:48:02.584Z,93.30
2023-05-06T14:50:50.876Z,93.40
2023-05-06T14:53:18.087Z,93.50
2023-05-06T14:55:49.007Z,92.90
2023-05-06T14:58:16.112Z,92.20
2023-05-06T17:20:54.326Z,93.80
2023-05-06T17:23:27.808Z,94.70
2023-05-06T17:25:57.865Z,95.10
2023-05-06T17:28:25.004Z,95.50
2023-05-06T17:30:51.984Z,95.40
2023-05-06T17:33:18.798Z,95.20
2023-05-06T17:35:45.982Z,95.20
2023-05-06T17:38:13.102Z,95.40
2023-05-06T17:40:39.904Z,95.50
2023-05-06T17:43:07.375Z,95.70
2023-05-06T17:45:34.209Z,95.80
2023-05-06T17:48:01.181Z,95.90
2023-05-06T17:50:27.963Z,95.90
2023-05-06T17:52:55.272Z,95.90
2023-05-06T17:55:22.537Z,96.30
2023-05-06T17:57:49.672Z,96.30
2023-05-06T18:00:17.062Z,96.40
2023-05-06T18:02:44.729Z,96.80
2023-05-06T18:05:12.049Z,97.10
2023-05-06T18:07:41.888Z,97.20
2023-05-06T18:10:09.149Z,97.20
2023-05-06T18:12:36.698Z,97.20
2023-05-06T18:15:03.806Z,97.30
2023-05-06T18:17:30.655Z,97.40
2023-05-06T18:20:01.967Z,97.60
2023-05-06T18:22:28.801Z,97.60
2023-05-06T18:24:55.678Z,97.60
2023-05-06T18:27:23.044Z,97.90
2023-05-06T18:29:50.128Z,97.90
2023-05-06T18:32:18.035Z,98.00
2023-05-06T18:34:44.870Z,98.10
2023-05-06T18:37:11.662Z,98.20
2023-05-06T18:39:42.593Z,98.90
2023-05-06T18:42:09.648Z,99.00
2023-05-06T18:44:36.808Z,99.40
2023-05-06T18:47:03.846Z,99.50
2023-05-06T18:49:31.267Z,99.90
2023-05-06T18:51:58.164Z,99.90
2023-05-06T18:54:25.061Z,99.90
2023-05-06T18:56:51.961Z,99.90
2023-05-06T18:59:19.742Z,99.90
2023-05-06T19:01:46.568Z,99.90
2023-05-06T19:04:13.379Z,99.90
2023-05-06T19:06:40.590Z,99.90
2023-05-06T19:09:08.070Z,99.90
2023-05-06T19:11:35.097Z,99.90
2023-05-06T19:14:04.360Z,99.90
2023-05-06T19:16:31.305Z,99.90
2023-05-06T19:18:58.171Z,99.90
2023-05-06T19:21:24.935Z,99.90
2023-05-06T19:23:53.137Z,99.90
2023-05-06T19:26:29.204Z,99.90
2023-05-06T19:28:55.996Z,99.90
2023-05-06T19:31:22.919Z,99.90
2023-05-06T19:33:49.870Z,99.90
2023-05-06T19:36:17.100Z,99.90
2023-05-06T19:38:43.889Z,99.90
2023-05-06T19:41:11.115Z,99.90
2023-05-06T19:43:44.477Z,99.90
2023-05-06T19:46:11.875Z,99.90
2023-05-06T19:48:41.411Z,99.90
2023-05-06T19:51:08.413Z,99.90
2023-05-06T19:53:36.743Z,99.90
2023-05-06T19:56:11.614Z,99.90
2023-05-06T19:58:39.030Z,99.90
2023-05-06T20:01:05.997Z,99.90
2023-05-06T20:03:33.261Z,99.90
2023-05-06T20:06:00.204Z,99.90
2023-05-06T20:08:27.133Z,99.90
2023-05-06T20:10:53.945Z,99.90
2023-05-06T20:13:20.970Z,99.90
2023-05-06T20:15:47.888Z,99.90
2023-05-06T20:18:14.795Z,99.90
2023-05-06T20:20:41.958Z,99.90
2023-05-06T20:23:08.701Z,99.90
2023-05-06T20:25:37.331Z,99.90
2023-05-06T20:28:06.831Z,99.90
2023-05-06T20:30:34.366Z,99.90
2023-05-06T20:33:01.376Z,99.90
2023-05-06T20:35:28.282Z,99.90
2023-05-06T20:37:55.838Z,99.90
2023-05-06T20:40:22.845Z,99.90
2023-05-06T20:42:49.704Z,99.90
2023-05-06T20:45:16.597Z,99.90
2023-05-06T20:47:43.633Z,99.90
2023-05-06T20:50:16.774Z,99.90
2023-05-06T20:52:45.680Z,99.90
2023-05-06T20:55:14.650Z,99.90
2023-05-06T20:57:45.007Z,99.90
2023-05-06T21:00:12.340Z,99.90
2023-05-06T21:02:41.342Z,99.90
2023-05-06T21:05:09.920Z,99.90
2023-05-06T21:07:36.985Z,99.90
2023-05-06T21:10:05.765Z,99.90
2023-05-06T21:12:33.357Z,99.90
2023-05-06T21:15:00.436Z,99.90
2023-05-06T21:17:27.285Z,99.90
2023-05-06T21:19:56.264Z,99.90
2023-05-06T21:22:23.831Z,99.90
2023-05-06T21:24:51.195Z,99.90
2023-05-06T21:27:18.111Z,99.90
2023-05-06T21:29:44.843Z,99.90
2023-05-06T21:32:11.734Z,99.90
2023-05-06T21:34:38.502Z,99.90
2023-05-06T21:37:07.798Z,99.90
2023-05-06T21:39:34.512Z,99.90
2023-05-06T21:42:01.285Z,99.90
2023-05-06T21:44:28.179Z,99.90
2023-05-06T21:46:55.020Z,99.90
2023-05-06T21:49:22.328Z,99.90
2023-05-06T21:51:49.333Z,99.90
2023-05-06T21:54:17.128Z,99.90
2023-05-06T21:56:45.140Z,99.90
2023-05-06T21:59:11.912Z,99.90
2023-05-06T22:01:39.084Z,99.90
2023-05-06T22:04:11.276Z,99.90
2023-05-06T22:06:39.073Z,99.90
2023-05-06T22:09:09.463Z,99.90
2023-05-06T22:11:38.305Z,99.90
2023-05-06T22:14:06.456Z,99.90
2023-05-06T22:16:34.144Z,99.90
2023-05-06T22:19:02.147Z,99.90
2023-05-06T22:21:32.313Z,99.90
2023-05-06T22:23:59.352Z,99.90
2023-05-06T22:26:28.168Z,99.90
2023-05-06T22:28:58.161Z,99.90
2023-05-06T22:31:25.503Z,99.90
2023-05-06T22:33:57.532Z,99.90
2023-05-06T22:36:29.260Z,99.90
2023-05-06T22:38:56.358Z,99.90
2023-05-06T22:41:23.171Z,99.90
2023-05-06T22:43:49.946Z,99.90
2023-05-06T22:46:16.805Z,99.90
2023-05-06T22:48:46.891Z,99.90
2023-05-06T22:51:18.632Z,99.90
2023-05-06T22:53:45.386Z,99.90
2023-05-06T22:56:12.417Z,99.90
2023-05-06T22:58:39.234Z,99.90
2023-05-06T23:01:07.445Z,99.90
2023-05-06T23:03:34.820Z,99.90
2023-05-06T23:06:01.723Z,99.90
2023-05-06T23:08:28.437Z,99.90
2023-05-06T23:10:55.137Z,99.90
2023-05-06T23:13:22.024Z,99.90
2023-05-06T23:15:48.749Z,99.90
2023-05-06T23:18:15.733Z,99.90
2023-05-06T23:20:42.603Z,99.90
2023-05-06T23:23:10.938Z,99.90
2023-05-06T23:25:37.876Z,99.90
2023-05-06T23:28:04.832Z,99.90
2023-05-06T23:30:31.606Z,99.90
2023-05-06T23:32:58.448Z,99.90
2023-05-06T23:35:25.973Z,99.90
2023-05-06T23:37:52.743Z,99.90
2023-05-06T23:40:19.589Z,99.90
2023-05-06T23:42:46.337Z,99.90
2023-05-06T23:45:13.298Z,99.90
2023-05-06T23:47:40.482Z,99.90
2023-05-06T23:50:08.009Z,99.90
2023-05-06T23:52:36.547Z,99.90
2023-05-06T23:55:03.522Z,99.90
2023-05-06T23:57:30.385Z,99.90
2023-05-06T23:59:57.337Z,99.90
